Home   Weather   Germany   Castrop-Rauxel   Past weeks
Flag for Germany

Past Weather in Castrop-Rauxel, North Rhine-Westphalia, Germany — Yesterday and Last 2 Weeks

Currently: 36 °F. Fog. (Weather station: Dortmund / Wickede, Germany). See more current weather

Past Weather in Castrop-Rauxel — Graph

°F

Castrop-Rauxel Temperature Yesterday

Maximum temperature yesterday: 50 °F (at 2:50 pm)
Minimum temperature yesterday: 37 °F (at 6:20 am)
Average temperature yesterday: 42 °F

High & Low Weather Summary for the Past Weeks

 TemperatureHumidityPressure
High66 °F (Feb 21, 3:20 pm)100% (Feb 16, 6:50 am)30.72 "Hg (Feb 16, 6:50 am)
Low9 °F (Feb 14, 7:20 am)22% (Feb 15, 12:20 am)29.71 "Hg (Feb 18, 6:20 pm)
Average48 °F68%30.24 "Hg
* Reported Feb 14 7:20 am — Mar 1 7:20 am, Castrop-Rauxel. Weather by CustomWeather, © 2021

Note: Actual official high and low records may vary slightly from our data, if they occured in-between our weather recording intervals... More about our weather records

Castrop-Rauxel Weather History for the Previous 24 Hours

Scroll right to see more
 ConditionsComfort  
Time TempWeatherWind HumidityBarometerVisibility
7:20 am
Mon, Mar 1
36 °FFog.8 mph100%30.54 "Hg0 mi
6:50 am36 °FFog.8 mph100%30.54 "Hg0 mi
6:20 am36 °FFog.8 mph100%30.54 "Hg0 mi
5:50 am36 °FFog.7 mph100%30.54 "Hg0 mi
5:20 am36 °FFog.8 mph100%30.54 "Hg1 mi
4:50 am37 °FMostly cloudy.9 mph93%30.54 "Hg0 mi
4:20 am37 °FMostly cloudy.8 mph100%30.54 "Hg0 mi
3:50 am37 °FMostly cloudy.7 mph100%30.54 "Hg0 mi
3:20 am37 °FMostly cloudy.8 mph100%30.54 "Hg1 mi
2:50 am37 °FMostly cloudy.9 mph100%30.54 "Hg1 mi
2:20 am37 °FMostly cloudy.9 mph100%30.57 "Hg1 mi
1:50 am37 °FMostly cloudy.8 mph100%30.57 "Hg1 mi
1:20 am37 °FMostly cloudy.9 mph100%30.57 "Hg0 mi
12:50 am37 °FMostly cloudy.12 mph93%30.57 "Hg0 mi
12:20 am37 °FMostly cloudy.10 mph93%30.54 "Hg0 mi
11:50 pm
Sun, Feb 28
37 °FMostly cloudy.8 mph100%30.57 "Hg0 mi
11:20 pm37 °FMostly cloudy.9 mph100%30.57 "Hg0 mi
10:50 pm37 °FMostly cloudy.13 mph100%30.57 "Hg1 mi
10:20 pm39 °FPassing clouds.9 mph93%30.57 "Hg4 mi
9:50 pm39 °FClear.8 mph93%30.57 "Hg10 mi
9:20 pm39 °FPassing clouds.7 mph93%30.57 "HgN/A
8:20 pm43 °FClear.6 mph81%30.57 "Hg10 mi
7:50 pm43 °FClear.5 mph81%30.57 "Hg10 mi
7:20 pm43 °FClear.6 mph81%30.57 "Hg10 mi
6:50 pm45 °FClear.6 mph81%30.57 "Hg10 mi
6:20 pm45 °FPassing clouds.5 mph76%30.57 "HgN/A
5:50 pm46 °FSunny.8 mph76%30.54 "Hg10 mi
5:20 pm46 °FPassing clouds.9 mph76%30.57 "HgN/A
4:50 pm48 °FPassing clouds.8 mph71%30.57 "HgN/A
4:20 pm48 °FPassing clouds.7 mph66%30.57 "HgN/A
3:50 pm50 °FPassing clouds.8 mph67%30.57 "HgN/A
3:20 pm48 °FPassing clouds.9 mph71%30.57 "HgN/A
2:50 pm50 °FPassing clouds.8 mph67%30.57 "HgN/A
2:20 pm48 °FPassing clouds.8 mph71%30.60 "HgN/A
1:50 pm48 °FPassing clouds.8 mph71%30.60 "HgN/A
1:20 pm48 °FPassing clouds.7 mph71%30.60 "HgN/A
12:50 pm46 °FPassing clouds.8 mph76%30.63 "HgN/A
12:20 pm46 °FPassing clouds.7 mph71%30.63 "HgN/A
11:50 am46 °FPassing clouds.8 mph76%30.63 "HgN/A
11:20 am45 °FScattered clouds.7 mph76%30.63 "HgN/A
10:50 am45 °FPassing clouds.7 mph81%30.63 "HgN/A
10:20 am43 °FClear.7 mph87%30.63 "Hg6 mi
9:50 am41 °FScattered clouds.7 mph93%30.63 "Hg4 mi
9:20 am41 °FPartly sunny.8 mph93%30.66 "Hg4 mi
8:50 am39 °FFog.6 mph100%30.66 "Hg2 mi
8:20 am37 °FFog.3 mph100%30.66 "Hg2 mi
Weather by CustomWeather, © 2021

See weather overview